Aeroporto :
LOGIN :

Iscrizione | Disclaimer

   EN    FR    IT 

 










Sommario :    VFR   VFR Marginale   IFR   IFR Intensivo   IFR Molto Intensivo
Visibilità : 
Base nubi : 
>= 8 km
>= 3000ft
5 / 8 km
1000 / 3000 ft
1500m / 5 km
500 / 1000 ft
800 / 1500m
200 / 500 ft
< 800m
< 200 ft
Simboli :   Temporali  Nebbia  Neve Forte  Precipitazioni Forti  Vento > 20 kt
SIGMETs :   Varie  Temporali  Ghiacco  Turbolenza  Onda orograficha  Ceneri Vulcaniche






- Altitudine del aeroporto : 755 ft
- Codice IATA : KSC


LZKZ - Kosice

ULTIMO METAR :
  • 232000Z 21006KT 9999 -RA SCT027 OVC055 06/04 Q0999

METARs OBSOLETI :
  • 231930Z VRB02KT 9999 SCT032 BKN052 05/03 Q0999
  • 231900Z 08003KT 050V120 9999 FEW049 BKN060 04/04 Q0999
  • 231830Z 23004KT CAVOK 05/03 Q0999
  • 231800Z 29003KT CAVOK 05/03 Q0999
  • 231730Z VRB02KT CAVOK 05/03 Q0999

TAF TAF LZKZ
Valido dal 23 a 18 ore il 24 a 18 ore UTC


231700Z 2318/2418 19008KT 9999 SCT035
BECMG 2320/2322 5000 -RA BKN014 OVC020
PROB30
TEMPO 2322/2402 2000 RA BKN006 OVC012
BECMG 2406/2409 19016KT 9999 SCT006 BKN017
TEMPO 2408/2415 22016G26KT
BECMG 2416/2418 18006KT FEW010 SCT020



MetMap, La meteo Aeronautica in un colpo d'occhio ! - Copyright ORBIFLY Dicembre 2007 - Disclaimer

ORBIFLY MET'MAP TEAM :

Programmazione e sviluppo : Alexandra Zaïnal
Concezione : Baudouin d'Aumeries
Aiuto per la programmazione : Marc-Olivier Méhu
Supporto tecnico e logistico : Manuel Goepfert
Aiuto per la traduzione : Arnaldo La Scala

Contatto : metmap@orbifly.com




FONTI E CREDITI :

   NOAA